Time;durP1;ratioP1;P1;durP2;ratioP2;P2;SDS_P1;SDS_P2;PMS_P1;PMS_P2;Temp;Humidity;BMP_temperature;BMP_pressure;BME280_temperature;BME280_humidity;BME280_pressure;Samples;Min_cycle;Max_cycle;Signal;HPM_P1;HPM_P2
2022/01/16 00:00:40;;;;;;;8.02;7.03;;;17.20;62.20;;;;;;4994268;28;20047;-20
2022/01/16 00:05:51;;;;;;;8.35;7.55;;;17.20;62.10;;;;;;5013875;28;20048;-21
2022/01/16 00:08:17;;;;;;;7.63;6.93;;;17.20;62.10;;;;;;5014255;28;20085;-20
2022/01/16 00:10:43;;;;;;;7.20;6.50;;;17.20;61.90;;;;;;5014956;28;20050;-20
2022/01/16 00:13:08;;;;;;;7.15;6.45;;;17.20;61.80;;;;;;5017761;28;20057;-18
2022/01/16 00:15:34;;;;;;;7.00;6.40;;;17.20;61.70;;;;;;5022938;28;20072;-21
2022/01/16 00:18:09;;;;;;;7.38;6.65;;;17.20;61.80;;;;;;5038199;28;20049;-20
2022/01/16 00:20:35;;;;;;;6.82;6.25;;;17.20;61.80;;;;;;5038952;28;20045;-21
2022/01/16 00:23:03;;;;;;;6.53;6.03;;;17.20;61.70;;;;;;5036130;28;20088;-19
2022/01/16 00:25:29;;;;;;;7.10;6.40;;;17.20;61.70;;;;;;5018484;28;20046;-18
2022/01/16 00:27:54;;;;;;;7.30;6.70;;;17.20;61.70;;;;;;5018214;28;20056;-19
2022/01/16 00:30:20;;;;;;;6.75;6.15;;;17.20;61.60;;;;;;5017986;28;20056;-19
2022/01/16 00:32:46;;;;;;;7.18;6.47;;;17.20;61.60;;;;;;4999511;28;20422;-21
2022/01/16 00:35:12;;;;;;;6.22;5.72;;;17.20;61.60;;;;;;4994480;28;20138;-20
2022/01/16 00:37:38;;;;;;;6.50;5.95;;;17.10;61.60;;;;;;5012311;28;20491;-22
2022/01/16 00:40:05;;;;;;;6.88;6.35;;;17.20;61.60;;;;;;4999075;28;20046;-20
2022/01/16 00:42:31;;;;;;;7.30;6.60;;;17.10;61.50;;;;;;4997981;28;20462;-20
2022/01/16 00:44:56;;;;;;;6.53;5.97;;;17.20;61.50;;;;;;4997965;28;20042;-21
2022/01/16 00:47:22;;;;;;;7.38;6.78;;;17.20;61.50;;;;;;5015011;28;20115;-20
2022/01/16 00:49:47;;;;;;;6.82;6.22;;;17.20;61.40;;;;;;5018221;28;20044;-19
2022/01/16 00:52:13;;;;;;;7.03;6.43;;;17.10;61.60;;;;;;5016788;28;20070;-20
2022/01/16 00:54:39;;;;;;;6.88;6.07;;;17.10;61.50;;;;;;5018140;28;20438;-21
2022/01/16 00:57:05;;;;;;;6.30;5.72;;;17.10;61.50;;;;;;5017305;28;20375;-20
2022/01/16 00:59:30;;;;;;;6.50;5.97;;;17.10;61.50;;;;;;5018040;28;20076;-20
2022/01/16 01:01:56;;;;;;;6.50;6.00;;;17.10;61.50;;;;;;5015341;28;20045;-20
2022/01/16 01:04:22;;;;;;;6.28;5.78;;;17.10;61.50;;;;;;4998120;28;20446;-20
2022/01/16 01:06:49;;;;;;;6.32;5.82;;;17.10;61.50;;;;;;4998579;28;20141;-21
2022/01/16 01:09:15;;;;;;;6.35;5.85;;;17.00;61.50;;;;;;4997871;28;20536;-21
2022/01/16 01:11:43;;;;;;;5.82;5.43;;;17.10;61.50;;;;;;5000336;28;20092;-20
2022/01/16 01:16:51;;;;;;;6.00;5.50;;;17.00;61.60;;;;;;5018147;28;20076;-20
2022/01/16 01:19:26;;;;;;;6.35;5.85;;;17.00;61.70;;;;;;5017613;28;20129;-18
2022/01/16 01:21:52;;;;;;;6.40;5.88;;;17.00;61.70;;;;;;5018062;28;20070;-18
2022/01/16 01:24:17;;;;;;;5.95;5.47;;;16.90;61.60;;;;;;4997723;28;20034;-18
2022/01/16 01:26:53;;;;;;;5.90;5.43;;;16.90;61.80;;;;;;4997705;28;20053;-18
2022/01/16 01:29:20;;;;;;;6.25;5.78;;;16.90;61.70;;;;;;4997148;28;20391;-21
2022/01/16 01:31:47;;;;;;;7.45;5.22;;;16.90;61.60;;;;;;4997734;28;20046;-20
2022/01/16 01:34:12;;;;;;;5.85;5.35;;;16.90;61.50;;;;;;4997593;28;20046;-20
2022/01/16 01:36:38;;;;;;;5.70;5.30;;;16.90;61.50;;;;;;4998096;28;20044;-20
2022/01/16 01:39:03;;;;;;;5.82;5.32;;;16.90;61.60;;;;;;5006701;28;20041;-18
2022/01/16 01:41:29;;;;;;;5.45;5.05;;;16.90;61.60;;;;;;5017500;28;20073;-18
2022/01/16 01:52:08;;;;;;;5.40;5.00;;;16.90;61.60;;;;;;5016630;28;20053;-20
2022/01/16 01:54:33;;;;;;;5.55;5.15;;;16.90;61.60;;;;;;5017408;28;20418;-21
2022/01/16 01:57:00;;;;;;;5.53;5.13;;;16.90;61.60;;;;;;5016259;28;20050;-20
2022/01/16 01:59:26;;;;;;;5.10;4.80;;;16.80;61.40;;;;;;5017137;28;20326;-19
2022/01/16 02:01:52;;;;;;;4.68;4.38;;;16.80;61.60;;;;;;5017224;28;20129;-20
2022/01/16 02:04:17;;;;;;;5.03;4.63;;;16.80;61.60;;;;;;5016036;28;20042;-20
2022/01/16 02:06:43;;;;;;;5.47;5.07;;;16.80;61.50;;;;;;5015685;28;20057;-20
2022/01/16 02:09:10;;;;;;;5.28;4.88;;;16.80;61.50;;;;;;5014920;28;20515;-20
2022/01/16 02:11:36;;;;;;;5.32;4.93;;;16.80;61.40;;;;;;5017005;28;20045;-21
2022/01/16 02:14:10;;;;;;;5.75;5.32;;;16.80;61.50;;;;;;5015824;28;20429;-18
2022/01/16 02:28:08;;;;;;;4.32;4.03;;;16.80;61.50;;;;;;4996581;28;20042;-21
2022/01/16 02:31:00;;;;;;;4.55;4.25;;;16.80;61.30;;;;;;4984166;28;20048;-21
2022/01/16 02:36:28;;;;;;;4.53;4.13;;;16.80;61.40;;;;;;4993116;28;20053;-24
2022/01/16 02:39:23;;;;;;;4.38;4.13;;;16.80;61.30;;;;;;4994292;28;20499;-19
2022/01/16 02:41:52;;;;;;;4.10;3.83;;;16.80;61.40;;;;;;5011151;28;20101;-20
2022/01/16 02:44:23;;;;;;;4.30;4.00;;;16.80;61.40;;;;;;5011716;28;20046;-20
2022/01/16 02:46:48;;;;;;;3.97;3.70;;;16.80;61.40;;;;;;5015392;28;20573;-20
2022/01/16 02:49:17;;;;;;;4.28;3.97;;;16.80;61.40;;;;;;5014186;28;20046;-19
2022/01/16 02:51:42;;;;;;;4.10;3.88;;;16.80;61.40;;;;;;5015280;28;20148;-18
2022/01/16 02:54:08;;;;;;;4.72;4.43;;;16.80;61.50;;;;;;5014551;28;20459;-21
2022/01/16 02:56:35;;;;;;;4.53;4.22;;;16.70;61.30;;;;;;5015490;28;20655;-21
2022/01/16 02:59:00;;;;;;;3.75;3.55;;;16.70;61.40;;;;;;5014735;28;20061;-22
2022/01/16 03:01:26;;;;;;;3.90;3.70;;;16.70;61.50;;;;;;5015083;28;20053;-22
2022/01/16 03:03:52;;;;;;;4.90;4.50;;;16.70;61.40;;;;;;5016224;28;20069;-20
2022/01/16 03:06:17;;;;;;;3.92;3.70;;;16.70;62.20;;;;;;5014996;28;20046;-21
2022/01/16 03:08:43;;;;;;;4.82;4.53;;;16.70;61.50;;;;;;5007978;28;20038;-20
2022/01/16 03:11:24;;;;;;;3.85;3.65;;;16.70;61.40;;;;;;5013458;28;20514;-19
2022/01/16 03:13:50;;;;;;;4.30;4.00;;;16.70;61.40;;;;;;5007357;28;20514;-18
2022/01/16 03:16:17;;;;;;;4.28;3.97;;;16.70;61.40;;;;;;5014002;28;20155;-21
2022/01/16 03:24:11;;;;;;;4.03;3.72;;;16.70;61.30;;;;;;4991765;28;20041;-20
2022/01/16 03:26:36;;;;;;;3.90;3.70;;;16.70;61.30;;;;;;4994815;28;20081;-19
2022/01/16 03:29:02;;;;;;;4.13;3.92;;;16.70;61.50;;;;;;4994028;28;20060;-19
2022/01/16 03:31:28;;;;;;;3.95;3.65;;;16.70;61.40;;;;;;4995398;28;20108;-18
2022/01/16 03:33:54;;;;;;;3.75;3.55;;;16.70;61.30;;;;;;4995339;28;20523;-21
2022/01/16 03:36:20;;;;;;;3.70;3.50;;;16.70;61.50;;;;;;4994455;28;20149;-23
2022/01/16 03:38:46;;;;;;;4.10;3.90;;;16.70;61.40;;;;;;5000712;28;20069;-21
2022/01/16 03:41:11;;;;;;;3.75;3.40;;;16.60;61.50;;;;;;5013635;28;20050;-19
2022/01/16 03:43:37;;;;;;;4.43;4.13;;;16.70;61.50;;;;;;5014325;28;20037;-18
2022/01/16 03:46:03;;;;;;;3.45;3.25;;;16.70;61.30;;;;;;5013132;28;20052;-21
2022/01/16 03:48:29;;;;;;;3.90;3.70;;;16.60;61.40;;;;;;5013721;28;20529;-19
2022/01/16 03:50:54;;;;;;;3.88;3.58;;;16.70;61.50;;;;;;5008493;28;20042;-22
2022/01/16 03:53:20;;;;;;;3.45;3.25;;;16.70;61.50;;;;;;4991151;28;20412;-20
2022/01/16 03:55:46;;;;;;;3.53;3.33;;;16.60;61.40;;;;;;4993283;28;20061;-22
2022/01/16 03:58:11;;;;;;;3.58;3.38;;;16.70;61.50;;;;;;4991910;28;20046;-18
2022/01/16 04:00:37;;;;;;;4.00;3.25;;;16.70;61.50;;;;;;4993445;28;20042;-19
2022/01/16 04:03:02;;;;;;;3.20;3.00;;;16.60;61.50;;;;;;4993162;28;20056;-18
2022/01/16 04:05:28;;;;;;;3.30;3.10;;;16.60;61.50;;;;;;4992843;28;20057;-21
2022/01/16 04:07:54;;;;;;;3.50;3.25;;;16.60;61.50;;;;;;4993120;28;20049;-24
2022/01/16 04:10:21;;;;;;;3.28;3.08;;;16.60;61.50;;;;;;4965420;28;1170591;-20
2022/01/16 04:12:47;;;;;;;3.92;3.63;;;16.60;61.50;;;;;;5000664;28;20490;-20
2022/01/16 04:17:39;;;;;;;3.55;3.35;;;16.60;61.50;;;;;;4994131;28;20042;-20
2022/01/16 04:20:05;;;;;;;3.45;3.15;;;16.60;61.50;;;;;;4994599;28;20453;-21
2022/01/16 04:22:31;;;;;;;3.33;3.13;;;16.60;61.50;;;;;;4995528;28;20046;-20
2022/01/16 04:24:56;;;;;;;3.42;3.22;;;16.60;61.50;;;;;;4995773;28;20045;-20
2022/01/16 04:27:22;;;;;;;3.78;3.45;;;16.60;61.50;;;;;;4994524;28;20056;-20
2022/01/16 04:29:47;;;;;;;3.17;2.97;;;16.60;61.50;;;;;;4994832;28;20046;-19
2022/01/16 04:32:13;;;;;;;3.35;3.15;;;16.60;61.60;;;;;;4994257;28;20510;-19
2022/01/16 04:34:39;;;;;;;2.83;2.70;;;16.60;61.70;;;;;;4995477;28;20573;-19
2022/01/16 04:37:04;;;;;;;3.40;3.20;;;16.60;61.60;;;;;;4994897;28;20039;-19
2022/01/16 04:39:35;;;;;;;3.17;2.97;;;16.60;61.50;;;;;;4995319;28;20066;-17
2022/01/16 04:44:46;;;;;;;2.92;2.72;;;16.60;61.50;;;;;;5008789;28;20126;-19
2022/01/16 04:47:12;;;;;;;3.08;2.88;;;16.60;61.50;;;;;;5013915;28;20073;-19
2022/01/16 04:49:37;;;;;;;2.83;2.65;;;16.60;61.60;;;;;;5014923;28;20049;-20
2022/01/16 04:52:03;;;;;;;2.55;2.45;;;16.50;62.70;;;;;;5014948;28;20053;-20
2022/01/16 04:54:29;;;;;;;2.90;2.70;;;16.50;63.20;;;;;;5014354;28;20473;-20
2022/01/16 04:56:54;;;;;;;2.83;2.63;;;16.60;63.40;;;;;;5014708;28;20583;-20
2022/01/16 04:59:20;;;;;;;2.60;2.40;;;16.50;63.20;;;;;;5017147;28;20041;-21
2022/01/16 05:01:46;;;;;;;2.60;2.50;;;16.60;63.20;;;;;;5017857;28;20050;-21
2022/01/16 05:04:11;;;;;;;2.85;2.75;;;16.60;63.10;;;;;;5017704;28;20099;-20
2022/01/16 05:06:37;;;;;;;2.65;2.55;;;16.60;63.00;;;;;;5018353;28;20053;-19
2022/01/16 05:09:03;;;;;;;2.65;2.55;;;16.60;62.90;;;;;;5018245;28;20070;-21
2022/01/16 05:11:29;;;;;;;2.60;2.50;;;16.60;63.00;;;;;;5016999;28;20057;-18
2022/01/16 05:16:37;;;;;;;2.97;2.80;;;16.50;63.10;;;;;;5017433;28;20095;-21
2022/01/16 05:19:13;;;;;;;2.72;2.58;;;16.50;63.20;;;;;;5018077;28;20540;-19
2022/01/16 05:21:40;;;;;;;2.70;2.60;;;16.50;63.20;;;;;;5017085;28;20419;-20
2022/01/16 05:24:09;;;;;;;3.00;2.80;;;16.50;63.00;;;;;;5018050;28;20046;-19
2022/01/16 05:26:36;;;;;;;2.70;2.58;;;16.60;62.80;;;;;;4997741;28;20132;-20
2022/01/16 05:29:03;;;;;;;2.85;2.75;;;16.60;62.80;;;;;;4998061;28;20061;-20
2022/01/16 05:31:28;;;;;;;2.53;2.42;;;16.50;62.90;;;;;;4997646;28;20415;-18
2022/01/16 05:33:54;;;;;;;2.60;2.50;;;16.50;62.90;;;;;;4998308;28;20050;-18
2022/01/16 05:36:20;;;;;;;2.80;2.70;;;16.50;62.90;;;;;;4997145;28;20050;-19
2022/01/16 05:38:46;;;;;;;2.45;2.35;;;16.50;62.80;;;;;;4997686;28;20066;-20
2022/01/16 05:41:11;;;;;;;2.70;2.58;;;16.60;62.80;;;;;;4997252;28;20045;-20
2022/01/16 05:43:37;;;;;;;2.83;2.63;;;16.50;62.80;;;;;;4998126;28;20559;-18
2022/01/16 05:46:02;;;;;;;2.50;2.40;;;16.50;62.80;;;;;;4997845;28;20043;-19
2022/01/16 05:48:28;;;;;;;2.40;2.30;;;16.50;62.80;;;;;;4997426;28;20083;-19
2022/01/16 05:50:54;;;;;;;2.08;1.98;;;16.50;62.90;;;;;;4997381;28;20049;-18
2022/01/16 05:53:19;;;;;;;1.98;1.88;;;16.50;62.80;;;;;;4997232;28;20498;-22
2022/01/16 05:55:45;;;;;;;2.20;2.10;;;16.50;62.80;;;;;;4997317;28;20122;-19
2022/01/16 05:58:11;;;;;;;2.08;1.98;;;16.50;62.70;;;;;;4996908;28;20046;-19
2022/01/16 06:00:37;;;;;;;2.42;2.33;;;16.50;62.80;;;;;;4997460;28;20037;-18
2022/01/16 06:03:03;;;;;;;1.98;1.88;;;16.50;62.70;;;;;;4997586;28;20121;-19
2022/01/16 06:05:29;;;;;;;2.05;1.95;;;16.50;62.80;;;;;;4997074;28;20165;-23
2022/01/16 06:08:00;;;;;;;2.17;2.08;;;16.50;62.70;;;;;;4997553;28;20499;-20
2022/01/16 06:10:26;;;;;;;2.00;1.90;;;16.50;62.70;;;;;;4995387;28;20052;-21
2022/01/16 06:12:52;;;;;;;1.90;1.80;;;16.50;62.70;;;;;;4997414;28;20084;-19
2022/01/16 06:15:21;;;;;;;1.95;1.85;;;16.50;62.60;;;;;;4996652;28;20043;-18
2022/01/16 06:17:47;;;;;;;2.50;2.40;;;16.50;62.60;;;;;;4996916;28;20132;-19
2022/01/16 06:20:15;;;;;;;2.08;1.98;;;16.50;62.60;;;;;;4996733;28;20094;-18
2022/01/16 06:22:41;;;;;;;2.30;2.20;;;16.50;62.50;;;;;;4997336;28;20050;-20
2022/01/16 06:25:07;;;;;;;1.90;1.80;;;16.40;62.50;;;;;;4996827;28;20042;-19
2022/01/16 06:27:33;;;;;;;2.17;2.08;;;16.50;62.50;;;;;;4996497;28;20053;-20
2022/01/16 06:29:58;;;;;;;2.03;1.92;;;16.50;63.20;;;;;;5011496;28;20045;-20
2022/01/16 06:32:24;;;;;;;1.83;1.73;;;16.50;62.50;;;;;;5016167;28;20046;-20
2022/01/16 06:34:49;;;;;;;1.88;1.77;;;16.40;62.40;;;;;;5016777;28;20057;-20
2022/01/16 06:37:15;;;;;;;1.83;1.73;;;16.40;62.40;;;;;;5014375;28;20056;-21
2022/01/16 06:39:40;;;;;;;1.65;1.55;;;16.40;62.40;;;;;;4996902;28;20050;-19
2022/01/16 06:42:06;;;;;;;2.03;1.92;;;16.40;62.40;;;;;;4996847;28;20046;-18
2022/01/16 06:44:32;;;;;;;2.10;2.00;;;16.40;62.40;;;;;;4996153;28;20073;-20
2022/01/16 06:46:57;;;;;;;1.88;1.77;;;16.40;62.30;;;;;;4996873;28;20049;-19
2022/01/16 06:49:23;;;;;;;2.03;1.92;;;16.40;62.30;;;;;;4995875;28;20042;-18
2022/01/16 06:51:48;;;;;;;2.25;2.05;;;16.40;62.20;;;;;;4996346;28;20155;-20
2022/01/16 06:54:14;;;;;;;2.20;2.10;;;16.40;62.30;;;;;;4996075;28;20038;-22
2022/01/16 06:56:39;;;;;;;2.30;2.20;;;16.40;62.20;;;;;;4996492;28;20483;-20
2022/01/16 06:59:05;;;;;;;1.95;1.85;;;16.40;62.20;;;;;;4995948;28;20057;-20
2022/01/16 07:01:31;;;;;;;1.90;1.80;;;16.40;62.30;;;;;;4996408;28;20069;-20
2022/01/16 07:03:57;;;;;;;1.80;1.70;;;16.40;62.30;;;;;;4996638;28;20463;-19
2022/01/16 07:06:22;;;;;;;2.00;1.90;;;16.40;62.40;;;;;;4995783;28;20042;-21
2022/01/16 07:08:48;;;;;;;1.70;1.60;;;16.40;62.40;;;;;;4996321;28;20042;-20
2022/01/16 07:11:15;;;;;;;1.90;1.80;;;16.40;62.50;;;;;;4995535;28;20051;-20
2022/01/16 07:13:40;;;;;;;1.58;1.50;;;16.40;62.40;;;;;;4995817;28;20128;-18
2022/01/16 07:16:06;;;;;;;2.05;1.95;;;16.40;62.40;;;;;;4996116;28;20093;-18
2022/01/16 07:18:31;;;;;;;1.90;1.80;;;16.40;62.30;;;;;;4995655;28;20050;-19
2022/01/16 07:20:57;;;;;;;1.70;1.60;;;16.40;62.30;;;;;;4995453;28;20056;-18
2022/01/16 07:23:23;;;;;;;1.90;1.80;;;16.30;62.30;;;;;;4995436;28;20427;-20
2022/01/16 07:25:48;;;;;;;1.80;1.70;;;16.30;62.40;;;;;;4996268;28;20046;-18
2022/01/16 07:28:14;;;;;;;1.80;1.70;;;16.30;62.50;;;;;;4995395;28;20046;-19
2022/01/16 07:30:40;;;;;;;1.65;1.55;;;16.30;62.30;;;;;;5014861;28;20046;-18
2022/01/16 07:33:06;;;;;;;1.55;1.50;;;16.30;62.40;;;;;;5000460;28;20053;-21
2022/01/16 07:35:32;;;;;;;1.95;1.70;;;16.30;62.40;;;;;;4995564;28;20126;-21
2022/01/16 07:37:58;;;;;;;1.33;1.33;;;16.30;62.30;;;;;;4995815;28;20132;-21
2022/01/16 07:40:24;;;;;;;1.50;1.50;;;16.30;62.30;;;;;;4995471;28;20034;-21
2022/01/16 07:42:50;;;;;;;1.75;1.65;;;16.30;62.30;;;;;;4995882;28;20129;-18
2022/01/16 07:45:16;;;;;;;1.73;1.63;;;16.30;62.30;;;;;;4994664;28;20101;-22
2022/01/16 07:47:41;;;;;;;1.80;1.70;;;16.30;62.20;;;;;;4996044;28;20049;-21
2022/01/16 07:50:07;;;;;;;1.63;1.52;;;16.30;62.20;;;;;;4995985;28;20468;-21
2022/01/16 07:52:33;;;;;;;1.65;1.55;;;16.30;62.30;;;;;;4994623;28;20043;-20
2022/01/16 07:54:59;;;;;;;1.38;1.38;;;16.30;62.30;;;;;;4995902;28;20057;-18
2022/01/16 07:57:24;;;;;;;1.67;1.58;;;16.30;62.20;;;;;;4995058;28;20585;-18
2022/01/16 07:59:50;;;;;;;1.63;1.52;;;16.30;62.30;;;;;;4995256;28;20046;-19
2022/01/16 08:02:17;;;;;;;1.65;1.60;;;16.30;62.30;;;;;;4994565;28;20499;-20
2022/01/16 08:04:42;;;;;;;1.58;1.48;;;16.30;62.30;;;;;;4994938;28;20097;-18
2022/01/16 08:07:09;;;;;;;1.52;1.42;;;16.30;62.30;;;;;;4995152;28;20063;-17
2022/01/16 08:09:36;;;;;;;1.38;1.17;;;16.30;62.20;;;;;;4995303;28;20058;-20
2022/01/16 08:12:03;;;;;;;1.23;1.23;;;16.20;63.10;;;;;;4994842;28;20046;-20
2022/01/16 08:14:28;;;;;;;1.20;1.20;;;16.20;62.40;;;;;;4994954;28;20050;-22
2022/01/16 08:16:56;;;;;;;1.42;1.33;;;16.20;62.30;;;;;;4995572;28;20145;-18
2022/01/16 08:19:22;;;;;;;1.30;1.30;;;16.20;62.30;;;;;;4994741;28;20050;-19
2022/01/16 08:21:48;;;;;;;1.20;1.20;;;16.30;62.40;;;;;;4995569;28;20459;-20
2022/01/16 08:24:13;;;;;;;1.25;1.15;;;16.20;62.30;;;;;;4995590;28;20051;-20
2022/01/16 08:26:39;;;;;;;1.30;1.30;;;16.20;62.30;;;;;;4994705;28;20116;-22
2022/01/16 08:29:05;;;;;;;1.27;1.27;;;16.20;62.40;;;;;;5001890;28;20446;-21
2022/01/16 08:31:30;;;;;;;1.30;1.30;;;16.20;62.30;;;;;;5014623;28;20049;-19
2022/01/16 08:33:56;;;;;;;1.40;1.30;;;16.30;62.30;;;;;;5017074;28;20125;-20
2022/01/16 08:36:21;;;;;;;1.58;1.50;;;16.20;62.40;;;;;;5014514;28;20038;-21
2022/01/16 08:38:47;;;;;;;1.27;1.27;;;16.20;62.30;;;;;;5012382;28;20046;-20
2022/01/16 08:41:13;;;;;;;1.27;1.27;;;16.20;62.40;;;;;;5019584;28;20042;-19
2022/01/16 08:43:39;;;;;;;1.38;1.38;;;16.20;62.30;;;;;;5006351;28;20050;-18
2022/01/16 08:46:04;;;;;;;1.63;1.52;;;16.20;62.30;;;;;;4992155;28;20049;-18
2022/01/16 08:48:30;;;;;;;1.23;1.23;;;16.20;62.50;;;;;;5008641;28;20046;-22
2022/01/16 08:50:56;;;;;;;1.27;1.27;;;16.20;62.20;;;;;;4983938;28;20165;-19
2022/01/16 08:53:21;;;;;;;1.30;1.30;;;16.30;62.30;;;;;;4986645;28;20043;-18
2022/01/16 08:55:47;;;;;;;1.40;1.30;;;16.30;62.20;;;;;;5006393;28;20474;-19
2022/01/16 08:58:12;;;;;;;1.30;1.30;;;16.30;62.40;;;;;;4996682;28;20053;-19
2022/01/16 09:00:38;;;;;;;1.50;1.40;;;16.30;62.30;;;;;;4997358;28;20042;-19
2022/01/16 09:03:04;;;;;;;1.60;1.50;;;16.30;62.30;;;;;;4998162;28;20046;-19
2022/01/16 09:05:29;;;;;;;3.55;1.40;;;16.30;62.40;;;;;;4997497;28;20081;-19
2022/01/16 09:07:55;;;;;;;1.75;1.65;;;16.30;62.50;;;;;;4998299;28;20449;-18
2022/01/16 09:10:21;;;;;;;1.02;1.02;;;16.20;62.70;;;;;;4997924;28;20488;-20
2022/01/16 09:12:46;;;;;;;1.60;1.50;;;16.30;62.80;;;;;;4997981;28;20054;-18
2022/01/16 09:15:12;;;;;;;1.52;1.42;;;16.20;63.00;;;;;;4997151;28;20050;-17
2022/01/16 09:17:39;;;;;;;1.60;1.50;;;16.30;63.20;;;;;;4996736;28;20042;-20
2022/01/16 09:20:05;;;;;;;1.45;1.35;;;16.30;63.30;;;;;;4998353;28;20069;-19
2022/01/16 09:22:31;;;;;;;1.52;1.42;;;16.30;63.80;;;;;;4997699;28;20050;-18
2022/01/16 09:24:56;;;;;;;1.48;1.48;;;16.30;63.60;;;;;;4997662;28;20482;-18
2022/01/16 09:27:22;;;;;;;1.40;1.40;;;16.30;63.70;;;;;;4997081;28;20050;-20
2022/01/16 09:29:48;;;;;;;1.83;1.77;;;16.30;64.00;;;;;;4996756;28;20503;-20
2022/01/16 09:32:13;;;;;;;3.95;3.75;;;16.40;64.40;;;;;;4998199;28;20503;-17
2022/01/16 09:34:40;;;;;;;4.32;3.78;;;16.30;64.60;;;;;;4996897;28;20495;-17
2022/01/16 09:37:08;;;;;;;5.82;5.40;;;16.30;65.10;;;;;;4994750;28;20201;-17
2022/01/16 09:39:38;;;;;;;6.28;5.72;;;16.30;65.40;;;;;;4647463;28;10000055;-18
2022/01/16 09:42:06;;;;;;;6.93;6.13;;;16.30;65.70;;;;;;4994478;28;20476;-19
2022/01/16 09:44:31;;;;;;;8.18;7.13;;;16.30;66.00;;;;;;5011729;28;20041;-17
2022/01/16 09:46:58;;;;;;;8.70;7.80;;;16.40;65.70;;;;;;4998738;28;20106;-19
2022/01/16 09:49:24;;;;;;;14.93;10.77;;;16.40;66.20;;;;;;4990472;28;20057;-20
2022/01/16 09:51:51;;;;;;;27.02;14.02;;;16.50;66.20;;;;;;4992827;28;20046;-19
2022/01/16 09:54:17;;;;;;;32.92;18.73;;;16.50;66.10;;;;;;4991161;28;20100;-19
2022/01/16 09:56:43;;;;;;;36.92;19.40;;;16.60;65.90;;;;;;4990836;28;20483;-20
2022/01/16 09:59:08;;;;;;;35.53;20.33;;;16.50;67.00;;;;;;4993425;28;20054;-18
2022/01/16 10:01:34;;;;;;;36.40;19.08;;;16.50;66.10;;;;;;4993143;28;20054;-19
2022/01/16 10:04:00;;;;;;;38.20;21.77;;;16.40;66.30;;;;;;4994219;28;20049;-20
2022/01/16 10:06:25;;;;;;;43.30;21.42;;;16.50;66.20;;;;;;4993603;28;20082;-20
2022/01/16 10:08:52;;;;;;;36.95;21.58;;;16.40;66.20;;;;;;4992619;28;20104;-19
2022/01/16 10:11:40;;;;;;;34.83;19.13;;;16.40;66.20;;;;;;4993517;28;20501;-20
2022/01/16 10:14:15;;;;;;;33.47;18.45;;;16.40;66.10;;;;;;4992970;28;20046;-20
2022/01/16 10:16:42;;;;;;;35.10;17.88;;;16.40;66.00;;;;;;4992990;28;20050;-20
2022/01/16 10:19:22;;;;;;;33.53;18.63;;;16.40;65.80;;;;;;4993723;28;20101;-20
2022/01/16 10:21:48;;;;;;;36.42;19.60;;;16.40;66.10;;;;;;5012726;28;20503;-18
2022/01/16 10:24:18;;;;;;;32.63;18.15;;;16.40;65.90;;;;;;5013438;28;20045;-19
2022/01/16 10:26:44;;;;;;;37.85;17.42;;;16.40;65.90;;;;;;5012082;28;20092;-20
2022/01/16 10:29:18;;;;;;;34.78;18.08;;;16.40;65.90;;;;;;5012678;28;20038;-18
2022/01/16 10:31:43;;;;;;;29.30;16.05;;;16.40;65.90;;;;;;5000466;28;20041;-17
2022/01/16 10:34:27;;;;;;;29.80;16.83;;;16.40;65.70;;;;;;5012853;28;20100;-19
2022/01/16 10:36:52;;;;;;;30.63;17.25;;;16.40;65.80;;;;;;5012125;28;20080;-20
2022/01/16 10:39:18;;;;;;;28.55;16.73;;;16.40;65.80;;;;;;5012340;28;20140;-18
2022/01/16 10:41:44;;;;;;;26.48;16.17;;;16.50;65.80;;;;;;5012064;28;20180;-18
2022/01/16 10:44:26;;;;;;;29.25;14.23;;;16.40;65.70;;;;;;5012831;28;20046;-18
2022/01/16 10:46:51;;;;;;;25.40;14.82;;;16.50;65.90;;;;;;4984412;28;20116;-19
2022/01/16 10:49:18;;;;;;;25.30;14.38;;;16.40;65.80;;;;;;4991670;28;20042;-20
2022/01/16 10:52:07;;;;;;;29.10;14.82;;;16.40;65.90;;;;;;4992399;28;20105;-17
2022/01/16 10:54:35;;;;;;;23.70;14.77;;;16.40;65.90;;;;;;4992245;28;20057;-18
2022/01/16 10:57:19;;;;;;;24.52;13.90;;;16.40;66.10;;;;;;4992469;28;20050;-18
2022/01/16 10:59:45;;;;;;;26.00;14.95;;;16.50;65.90;;;;;;4992472;28;20069;-20
2022/01/16 11:02:11;;;;;;;21.48;13.85;;;16.40;65.90;;;;;;4993315;28;20046;-18
2022/01/16 11:04:37;;;;;;;26.05;14.27;;;16.40;66.00;;;;;;4992446;28;20048;-20
2022/01/16 11:07:03;;;;;;;23.77;13.70;;;16.50;65.90;;;;;;4993022;28;20141;-19
2022/01/16 11:09:29;;;;;;;29.33;14.52;;;16.50;66.10;;;;;;4992351;28;20145;-21
2022/01/16 11:11:59;;;;;;;23.63;14.40;;;16.50;65.90;;;;;;4992761;28;20081;-20
2022/01/16 11:14:25;;;;;;;19.55;12.93;;;16.50;66.00;;;;;;4990835;28;20038;-20
2022/01/16 11:16:50;;;;;;;21.77;13.13;;;16.60;66.30;;;;;;4991844;28;20129;-20
2022/01/16 11:19:16;;;;;;;19.85;12.07;;;16.60;66.50;;;;;;4991143;28;20560;-17
2022/01/16 11:21:44;;;;;;;22.60;12.65;;;16.60;66.70;;;;;;4991337;28;20058;-20
2022/01/16 11:26:50;;;;;;;21.40;13.40;;;16.60;67.20;;;;;;4994901;28;20115;-21
2022/01/16 11:29:15;;;;;;;22.98;13.27;;;16.60;67.30;;;;;;4992190;28;20053;-18
2022/01/16 11:31:43;;;;;;;19.85;12.18;;;16.60;67.60;;;;;;4990440;28;20050;-20
2022/01/16 11:34:09;;;;;;;21.45;12.23;;;16.60;68.80;;;;;;4992330;28;20038;-21
2022/01/16 11:36:35;;;;;;;21.05;12.60;;;16.60;68.80;;;;;;4989850;28;20049;-17
2022/01/16 11:39:05;;;;;;;17.92;11.80;;;16.60;68.50;;;;;;4988731;28;20050;-20
2022/01/16 11:41:34;;;;;;;17.15;10.43;;;16.70;68.80;;;;;;4983920;28;20054;-20
2022/01/16 11:44:07;;;;;;;21.50;11.25;;;16.60;69.20;;;;;;4990788;28;20043;-20
2022/01/16 11:46:42;;;;;;;15.02;10.68;;;16.60;69.10;;;;;;4991637;28;20045;-18
2022/01/16 11:49:08;;;;;;;14.77;10.25;;;16.70;69.30;;;;;;5011925;28;20046;-19
2022/01/16 11:51:39;;;;;;;20.80;11.82;;;16.70;69.60;;;;;;5012740;28;20049;-19
2022/01/16 11:54:04;;;;;;;18.38;11.25;;;16.70;69.80;;;;;;4994453;28;20069;-20
2022/01/16 11:56:42;;;;;;;19.35;11.27;;;16.70;69.90;;;;;;4994966;28;20053;-19
2022/01/16 11:59:28;;;;;;;17.77;11.43;;;16.70;70.20;;;;;;4998455;28;20050;-19
2022/01/16 12:02:02;;;;;;;16.80;11.32;;;16.60;70.10;;;;;;4981009;28;20076;-19
2022/01/16 12:04:30;;;;;;;20.60;13.70;;;16.60;69.90;;;;;;4997460;28;20064;-22
2022/01/16 12:07:12;;;;;;;18.58;12.65;;;16.70;70.40;;;;;;4981914;28;20038;-19
2022/01/16 12:12:12;;;;;;;22.85;13.20;;;16.70;70.20;;;;;;5009679;28;20052;-17
2022/01/16 12:15:06;;;;;;;31.65;18.83;;;16.70;70.80;;;;;;5018110;28;20116;-19
2022/01/16 12:20:13;;;;;;;36.10;21.80;;;16.70;70.10;;;;;;5008985;28;20057;-18
2022/01/16 12:22:46;;;;;;;62.47;32.05;;;16.80;70.10;;;;;;5014777;28;20050;-18
2022/01/16 12:25:27;;;;;;;74.80;39.73;;;16.70;70.40;;;;;;4992637;28;20038;-17
2022/01/16 12:27:54;;;;;;;92.05;52.13;;;16.70;70.50;;;;;;4994598;28;20046;-20
2022/01/16 12:30:35;;;;;;;95.90;53.63;;;16.70;70.80;;;;;;4995807;28;20046;-17
2022/01/16 12:33:09;;;;;;;100.57;59.70;;;16.70;70.70;;;;;;4995065;28;20058;-19
2022/01/16 12:35:41;;;;;;;101.80;59.08;;;16.70;70.80;;;;;;4986402;28;20090;-20
2022/01/16 12:38:36;;;;;;;106.35;56.90;;;16.70;70.90;;;;;;4993355;28;20045;-19
2022/01/16 12:41:12;;;;;;;94.82;54.13;;;16.80;70.60;;;;;;5013499;28;20046;-20
2022/01/16 12:43:48;;;;;;;100.30;57.13;;;16.80;71.40;;;;;;5008242;28;20165;-18
2022/01/16 12:46:20;;;;;;;104.40;57.92;;;16.80;70.50;;;;;;4987138;28;20054;-20
2022/01/16 12:48:48;;;;;;;105.57;57.72;;;16.80;70.80;;;;;;4995145;28;20058;-19
2022/01/16 12:51:15;;;;;;;102.57;57.10;;;16.80;70.50;;;;;;4995530;28;20081;-19
2022/01/16 12:53:48;;;;;;;98.88;54.90;;;16.70;70.80;;;;;;4994209;28;20149;-19
2022/01/16 12:56:31;;;;;;;100.97;54.57;;;16.70;71.30;;;;;;4994450;28;20054;-19
2022/01/16 12:59:09;;;;;;;95.53;53.88;;;16.80;71.20;;;;;;5000995;28;20270;-19
2022/01/16 13:01:35;;;;;;;94.43;55.45;;;16.80;71.10;;;;;;4985100;28;20044;-18
2022/01/16 13:04:00;;;;;;;91.10;52.35;;;16.90;71.90;;;;;;4993747;28;20455;-20
2022/01/16 13:06:32;;;;;;;88.63;52.17;;;16.90;71.10;;;;;;4995037;28;20058;-20
2022/01/16 13:09:06;;;;;;;84.95;50.28;;;16.90;71.70;;;;;;4994889;28;20165;-18
2022/01/16 13:11:39;;;;;;;91.32;51.38;;;16.90;70.90;;;;;;4995345;28;20096;-19
2022/01/16 13:14:07;;;;;;;87.82;50.00;;;17.00;71.30;;;;;;4992429;28;20380;-18
2022/01/16 13:16:37;;;;;;;83.18;47.38;;;16.90;70.90;;;;;;4988810;28;20042;-20
2022/01/16 13:19:11;;;;;;;79.80;48.70;;;17.00;71.50;;;;;;4980856;28;20751;-20
2022/01/16 13:21:47;;;;;;;80.15;48.83;;;17.00;71.70;;;;;;4988360;28;20046;-18
2022/01/16 13:24:26;;;;;;;81.85;46.30;;;17.00;71.60;;;;;;4999936;28;20587;-18
2022/01/16 13:26:51;;;;;;;82.03;46.47;;;17.00;71.50;;;;;;5011622;28;20658;-21
2022/01/16 13:29:19;;;;;;;84.68;47.05;;;17.00;71.40;;;;;;5012528;28;20141;-19
2022/01/16 13:31:45;;;;;;;77.82;44.58;;;17.00;71.40;;;;;;5013527;28;20045;-21